MMZ307 EGGW-LIPE
Flight info
| Callsign | MMZ307 |
|---|---|
| Flight time | 1h 37m |
| Altitude | 41000 |
| Route | MATCH Q295 BRAIN P44 DAGGA M85 ITVIP L10 DVR UL9 KONAN UL607 SPI DCT LIRSU DCT KRH DCT BATUB DCT TIRUL M738 NATAG DCT UNTAD DCT ADOSA M738 BENUS |
| Aircraft | B772/H-SDE2E3FGHIJ5LORVWXY/LB1D1 |
Departure
| Time | 2026-04-27 06:24 |
|---|---|
| Airport | London Luton Airport (EGGW) |
Arrival
| Time | 2026-04-27 08:02 |
|---|---|
| Airport | Bologna Guglielmo Marconi Airport (LIPE) |
| Time | Latitude | Longitude | Altitude | Speed | Heading |
|---|---|---|---|---|---|
| 2026-04-27 06:12 | 51.87688 | -0.37080 | 525 ft | 0 kts | 345° |
| 2026-04-27 06:18 | 51.87685 | -0.37079 | 525 ft | 3 kts | 345° |
| 2026-04-27 06:18 | 51.87667 | -0.37071 | 526 ft | 3 kts | 345° |
| 2026-04-27 06:19 | 51.87648 | -0.37066 | 526 ft | 3 kts | 18° |
| 2026-04-27 06:19 | 51.87631 | -0.37083 | 526 ft | 3 kts | 62° |
| 2026-04-27 06:19 | 51.87629 | -0.37092 | 526 ft | 0 kts | 70° |
| 2026-04-27 06:20 | 51.87629 | -0.37091 | 526 ft | 0 kts | 70° |
| 2026-04-27 06:21 | 51.87634 | -0.36985 | 527 ft | 16 kts | 84° |
| 2026-04-27 06:22 | 51.87655 | -0.36814 | 529 ft | 16 kts | 75° |
| 2026-04-27 06:22 | 51.87689 | -0.36621 | 525 ft | 19 kts | 74° |
| 2026-04-27 06:22 | 51.87725 | -0.36419 | 523 ft | 18 kts | 74° |
| 2026-04-27 06:22 | 51.87759 | -0.36224 | 522 ft | 18 kts | 74° |
| 2026-04-27 06:23 | 51.87781 | -0.36057 | 522 ft | 14 kts | 95° |
| 2026-04-27 06:23 | 51.87723 | -0.35949 | 520 ft | 11 kts | 159° |
| 2026-04-27 06:23 | 51.87660 | -0.35904 | 521 ft | 4 kts | 152° |
| 2026-04-27 06:23 | 51.87630 | -0.35913 | 520 ft | 5 kts | 223° |
| 2026-04-27 06:24 | 51.87611 | -0.36008 | 520 ft | 25 kts | 255° |
| 2026-04-27 06:24 | 51.87489 | -0.36690 | 531 ft | 112 kts | 254° |
| 2026-04-27 06:24 | 51.87204 | -0.38297 | 902 ft | 164 kts | 255° |
| 2026-04-27 06:24 | 51.86859 | -0.40018 | 2105 ft | 168 kts | 243° |
| 2026-04-27 06:25 | 51.86143 | -0.41568 | 2974 ft | 183 kts | 231° |
| 2026-04-27 06:25 | 51.85126 | -0.42965 | 3632 ft | 203 kts | 209° |
| 2026-04-27 06:25 | 51.83793 | -0.44103 | 4007 ft | 231 kts | 209° |
| 2026-04-27 06:25 | 51.82366 | -0.45331 | 3987 ft | 232 kts | 200° |
| 2026-04-27 06:26 | 51.80765 | -0.45580 | 4012 ft | 236 kts | 168° |
| 2026-04-27 06:26 | 51.79282 | -0.44386 | 4035 ft | 256 kts | 136° |
| 2026-04-27 06:26 | 51.78277 | -0.41752 | 4024 ft | 301 kts | 104° |
| 2026-04-27 06:26 | 51.78140 | -0.38264 | 4190 ft | 324 kts | 87° |
| 2026-04-27 06:27 | 51.78189 | -0.34523 | 4840 ft | 338 kts | 89° |
| 2026-04-27 06:27 | 51.78083 | -0.30718 | 4956 ft | 343 kts | 98° |
| 2026-04-27 06:27 | 51.77572 | -0.26942 | 4971 ft | 344 kts | 103° |
| 2026-04-27 06:27 | 51.76951 | -0.23223 | 5049 ft | 342 kts | 104° |
| 2026-04-27 06:28 | 51.76329 | -0.19498 | 6099 ft | 345 kts | 103° |
| 2026-04-27 06:28 | 51.75846 | -0.15773 | 7347 ft | 340 kts | 96° |
| 2026-04-27 06:28 | 51.75769 | -0.11969 | 8812 ft | 330 kts | 86° |
| 2026-04-27 06:28 | 51.76005 | -0.08370 | 10194 ft | 321 kts | 82° |
| 2026-04-27 06:29 | 51.76274 | -0.04818 | 11175 ft | 324 kts | 83° |
| 2026-04-27 06:29 | 51.76551 | -0.01075 | 11839 ft | 341 kts | 83° |
| 2026-04-27 06:29 | 51.76818 | 0.02773 | 12873 ft | 347 kts | 85° |
| 2026-04-27 06:29 | 51.76575 | 0.06699 | 13804 ft | 359 kts | 107° |
| 2026-04-27 06:30 | 51.75414 | 0.10302 | 14854 ft | 363 kts | 128° |
| 2026-04-27 06:30 | 51.73854 | 0.13536 | 15726 ft | 371 kts | 129° |
| 2026-04-27 06:30 | 51.72268 | 0.16878 | 16745 ft | 378 kts | 129° |
| 2026-04-27 06:30 | 51.70673 | 0.20272 | 17838 ft | 383 kts | 129° |
| 2026-04-27 06:31 | 51.69063 | 0.23735 | 18852 ft | 389 kts | 129° |
| 2026-04-27 06:31 | 51.67453 | 0.27227 | 19723 ft | 395 kts | 129° |
| 2026-04-27 06:31 | 51.65797 | 0.30813 | 20619 ft | 400 kts | 129° |
| 2026-04-27 06:31 | 51.64120 | 0.34435 | 21510 ft | 405 kts | 129° |
| 2026-04-27 06:32 | 51.62425 | 0.38091 | 22367 ft | 411 kts | 129° |
| 2026-04-27 06:32 | 51.60692 | 0.41824 | 23222 ft | 417 kts | 129° |
| 2026-04-27 06:32 | 51.58945 | 0.45585 | 24037 ft | 422 kts | 129° |
| 2026-04-27 06:32 | 51.57175 | 0.49393 | 24741 ft | 427 kts | 129° |
| 2026-04-27 06:33 | 51.55382 | 0.53249 | 25447 ft | 432 kts | 130° |
| 2026-04-27 06:33 | 51.53594 | 0.57085 | 26184 ft | 436 kts | 130° |
| 2026-04-27 06:33 | 51.51765 | 0.61005 | 26938 ft | 440 kts | 130° |
| 2026-04-27 06:33 | 51.49913 | 0.64970 | 27669 ft | 445 kts | 130° |
| 2026-04-27 06:34 | 51.48049 | 0.68954 | 28388 ft | 449 kts | 131° |
| 2026-04-27 06:34 | 51.46157 | 0.72990 | 29128 ft | 453 kts | 131° |
| 2026-04-27 06:34 | 51.44251 | 0.77050 | 29884 ft | 457 kts | 131° |
| 2026-04-27 06:34 | 51.42331 | 0.81134 | 30547 ft | 461 kts | 131° |
| 2026-04-27 06:35 | 51.40387 | 0.85262 | 31141 ft | 466 kts | 131° |
| 2026-04-27 06:35 | 51.38425 | 0.89424 | 31712 ft | 470 kts | 131° |
| 2026-04-27 06:35 | 51.36441 | 0.93622 | 32248 ft | 474 kts | 131° |
| 2026-04-27 06:35 | 51.34441 | 0.97850 | 32776 ft | 479 kts | 131° |
| 2026-04-27 06:36 | 51.32481 | 1.01987 | 33207 ft | 484 kts | 131° |
| 2026-04-27 06:36 | 51.30428 | 1.06313 | 33721 ft | 488 kts | 131° |
| 2026-04-27 06:36 | 51.28367 | 1.10650 | 34218 ft | 491 kts | 131° |
| 2026-04-27 06:36 | 51.26320 | 1.14951 | 34624 ft | 495 kts | 131° |
| 2026-04-27 06:37 | 51.24222 | 1.19354 | 34990 ft | 498 kts | 130° |
| 2026-04-27 06:37 | 51.22119 | 1.23760 | 35448 ft | 499 kts | 130° |
| 2026-04-27 06:37 | 51.20015 | 1.28157 | 35996 ft | 497 kts | 130° |
| 2026-04-27 06:37 | 51.18118 | 1.32788 | 36492 ft | 500 kts | 120° |
| 2026-04-27 06:38 | 51.16745 | 1.37894 | 37048 ft | 502 kts | 110° |
| 2026-04-27 06:38 | 51.15853 | 1.43262 | 37615 ft | 502 kts | 101° |
| 2026-04-27 06:38 | 51.15483 | 1.48721 | 38122 ft | 502 kts | 95° |
| 2026-04-27 06:38 | 51.15260 | 1.54276 | 38623 ft | 501 kts | 94° |
| 2026-04-27 06:39 | 51.15058 | 1.59826 | 39110 ft | 500 kts | 94° |
| 2026-04-27 06:39 | 51.14840 | 1.65355 | 39522 ft | 499 kts | 94° |
| 2026-04-27 06:39 | 51.14592 | 1.70890 | 39903 ft | 499 kts | 94° |
| 2026-04-27 06:39 | 51.14324 | 1.76387 | 40279 ft | 498 kts | 95° |
| 2026-04-27 06:40 | 51.14043 | 1.81883 | 40629 ft | 498 kts | 95° |
| 2026-04-27 06:40 | 51.13761 | 1.87306 | 40989 ft | 498 kts | 95° |
| 2026-04-27 06:40 | 51.13475 | 1.92799 | 41319 ft | 498 kts | 94° |
| 2026-04-27 06:40 | 51.13187 | 1.98332 | 41292 ft | 504 kts | 94° |
| 2026-04-27 06:41 | 51.12610 | 2.09264 | 41286 ft | 498 kts | 95° |
| 2026-04-27 06:41 | 51.12022 | 2.20199 | 41298 ft | 496 kts | 95° |
| 2026-04-27 06:42 | 51.11526 | 2.29301 | 41298 ft | 497 kts | 95° |
| 2026-04-27 06:42 | 51.10814 | 2.42135 | 41291 ft | 505 kts | 95° |
| 2026-04-27 06:43 | 51.10288 | 2.51483 | 41294 ft | 507 kts | 95° |
| 2026-04-27 06:43 | 51.09618 | 2.62672 | 41291 ft | 508 kts | 97° |
| 2026-04-27 06:44 | 51.08112 | 2.73572 | 41288 ft | 508 kts | 107° |
| 2026-04-27 06:44 | 51.06092 | 2.84344 | 41295 ft | 507 kts | 107° |
| 2026-04-27 06:45 | 51.04075 | 2.95091 | 41299 ft | 506 kts | 107° |
| 2026-04-27 06:45 | 51.02141 | 3.05584 | 41292 ft | 505 kts | 107° |
| 2026-04-27 06:46 | 51.00170 | 3.16298 | 41280 ft | 504 kts | 107° |
| 2026-04-27 06:46 | 50.98194 | 3.26978 | 41288 ft | 503 kts | 107° |
| 2026-04-27 06:47 | 50.96209 | 3.37625 | 41278 ft | 503 kts | 107° |
| 2026-04-27 06:47 | 50.94215 | 3.48253 | 41276 ft | 502 kts | 107° |
| 2026-04-27 06:48 | 50.92225 | 3.58818 | 41280 ft | 502 kts | 107° |
| 2026-04-27 06:48 | 50.90203 | 3.69441 | 41280 ft | 502 kts | 107° |
| 2026-04-27 06:49 | 50.88150 | 3.80031 | 41276 ft | 503 kts | 108° |
| 2026-04-27 06:49 | 50.86085 | 3.90627 | 41287 ft | 504 kts | 108° |
| 2026-04-27 06:50 | 50.84058 | 4.00990 | 41295 ft | 504 kts | 108° |
| 2026-04-27 06:50 | 50.81973 | 4.11602 | 41283 ft | 505 kts | 108° |
| 2026-04-27 06:51 | 50.79880 | 4.22200 | 41279 ft | 505 kts | 108° |
| 2026-04-27 06:51 | 50.77770 | 4.32819 | 41282 ft | 505 kts | 108° |
| 2026-04-27 06:52 | 50.75665 | 4.43362 | 41293 ft | 506 kts | 108° |
| 2026-04-27 06:52 | 50.73539 | 4.53956 | 41288 ft | 506 kts | 108° |
| 2026-04-27 06:53 | 50.71416 | 4.64554 | 41291 ft | 506 kts | 108° |
| 2026-04-27 06:53 | 50.69363 | 4.75165 | 41278 ft | 506 kts | 107° |
| 2026-04-27 06:54 | 50.67304 | 4.85782 | 41268 ft | 506 kts | 108° |
| 2026-04-27 06:54 | 50.65208 | 4.96370 | 41282 ft | 506 kts | 108° |
| 2026-04-27 06:55 | 50.63074 | 5.06770 | 41281 ft | 506 kts | 108° |
| 2026-04-27 06:55 | 50.60906 | 5.17252 | 41275 ft | 506 kts | 108° |
| 2026-04-27 06:56 | 50.58729 | 5.27774 | 41258 ft | 506 kts | 108° |
| 2026-04-27 06:56 | 50.56541 | 5.38322 | 41256 ft | 506 kts | 108° |
| 2026-04-27 06:57 | 50.54358 | 5.48787 | 41254 ft | 506 kts | 109° |
| 2026-04-27 06:57 | 50.52111 | 5.59263 | 41255 ft | 505 kts | 112° |
| 2026-04-27 06:58 | 50.47151 | 5.73820 | 41250 ft | 503 kts | 123° |
| 2026-04-27 06:59 | 50.43441 | 5.83069 | 41240 ft | 504 kts | 123° |
| 2026-04-27 06:59 | 50.39737 | 5.92393 | 41238 ft | 504 kts | 123° |
| 2026-04-27 07:00 | 50.36106 | 6.01592 | 41237 ft | 504 kts | 123° |
| 2026-04-27 07:00 | 50.32413 | 6.10937 | 41226 ft | 504 kts | 123° |
| 2026-04-27 07:01 | 50.28708 | 6.20267 | 41225 ft | 505 kts | 123° |
| 2026-04-27 07:01 | 50.25014 | 6.29532 | 41212 ft | 505 kts | 123° |
| 2026-04-27 07:02 | 50.21292 | 6.38841 | 41215 ft | 505 kts | 123° |
| 2026-04-27 07:02 | 50.17382 | 6.47948 | 41214 ft | 504 kts | 130° |
| 2026-04-27 07:03 | 50.12861 | 6.56340 | 41227 ft | 504 kts | 132° |
| 2026-04-27 07:03 | 50.08297 | 6.64622 | 41238 ft | 504 kts | 132° |
| 2026-04-27 07:04 | 50.03772 | 6.72888 | 41234 ft | 504 kts | 131° |
| 2026-04-27 07:04 | 49.99233 | 6.81218 | 41216 ft | 504 kts | 131° |
| 2026-04-27 07:05 | 49.94691 | 6.89547 | 41225 ft | 504 kts | 131° |
| 2026-04-27 07:05 | 49.90169 | 6.97807 | 41218 ft | 505 kts | 131° |
| 2026-04-27 07:06 | 49.85688 | 7.05963 | 41223 ft | 505 kts | 131° |
| 2026-04-27 07:06 | 49.81115 | 7.14259 | 41230 ft | 506 kts | 131° |
| 2026-04-27 07:07 | 49.76542 | 7.22527 | 41225 ft | 506 kts | 132° |
| 2026-04-27 07:07 | 49.71955 | 7.30796 | 41222 ft | 506 kts | 131° |
| 2026-04-27 07:08 | 49.67394 | 7.38992 | 41235 ft | 506 kts | 131° |
| 2026-04-27 07:08 | 49.62791 | 7.47237 | 41239 ft | 506 kts | 131° |
| 2026-04-27 07:09 | 49.58184 | 7.55465 | 41242 ft | 507 kts | 132° |
| 2026-04-27 07:09 | 49.53567 | 7.63683 | 41243 ft | 507 kts | 132° |
| 2026-04-27 07:10 | 49.48949 | 7.71875 | 41242 ft | 507 kts | 131° |
| 2026-04-27 07:10 | 49.44349 | 7.80012 | 41235 ft | 507 kts | 131° |
| 2026-04-27 07:11 | 49.39711 | 7.88192 | 41236 ft | 506 kts | 132° |
| 2026-04-27 07:11 | 49.35071 | 7.96349 | 41235 ft | 506 kts | 132° |
| 2026-04-27 07:12 | 49.30529 | 8.04307 | 41234 ft | 506 kts | 132° |
| 2026-04-27 07:12 | 49.25875 | 8.12439 | 41225 ft | 506 kts | 132° |
| 2026-04-27 07:13 | 49.21225 | 8.20538 | 41216 ft | 506 kts | 132° |
| 2026-04-27 07:13 | 49.16570 | 8.28621 | 41224 ft | 506 kts | 132° |
| 2026-04-27 07:14 | 49.11912 | 8.36685 | 41212 ft | 506 kts | 132° |
| 2026-04-27 07:14 | 49.07279 | 8.44683 | 41212 ft | 506 kts | 132° |
| 2026-04-27 07:15 | 49.02612 | 8.52715 | 41208 ft | 506 kts | 132° |
| 2026-04-27 07:15 | 48.97579 | 8.60140 | 41201 ft | 504 kts | 142° |
| 2026-04-27 07:16 | 48.91835 | 8.66240 | 41203 ft | 503 kts | 148° |
| 2026-04-27 07:16 | 48.85992 | 8.72105 | 41205 ft | 503 kts | 148° |
| 2026-04-27 07:17 | 48.80170 | 8.77990 | 41210 ft | 503 kts | 147° |
| 2026-04-27 07:17 | 48.74350 | 8.83914 | 41204 ft | 504 kts | 147° |
| 2026-04-27 07:18 | 48.68528 | 8.89838 | 41200 ft | 504 kts | 147° |
| 2026-04-27 07:18 | 48.62746 | 8.95703 | 41209 ft | 503 kts | 147° |
| 2026-04-27 07:19 | 48.57019 | 9.01492 | 41207 ft | 504 kts | 147° |
| 2026-04-27 07:19 | 48.51189 | 9.07367 | 41194 ft | 504 kts | 147° |
| 2026-04-27 07:20 | 48.45354 | 9.13231 | 41203 ft | 504 kts | 147° |
| 2026-04-27 07:20 | 48.39507 | 9.19091 | 41195 ft | 504 kts | 147° |
| 2026-04-27 07:21 | 48.33698 | 9.24896 | 41189 ft | 504 kts | 147° |
| 2026-04-27 07:21 | 48.27816 | 9.30759 | 41193 ft | 504 kts | 147° |
| 2026-04-27 07:22 | 48.21971 | 9.36568 | 41188 ft | 504 kts | 147° |
| 2026-04-27 07:22 | 48.16176 | 9.42312 | 41201 ft | 503 kts | 147° |
| 2026-04-27 07:23 | 48.10332 | 9.48088 | 41214 ft | 503 kts | 147° |
| 2026-04-27 07:23 | 48.04483 | 9.53858 | 41209 ft | 503 kts | 147° |
| 2026-04-27 07:24 | 47.98664 | 9.59637 | 41210 ft | 503 kts | 146° |
| 2026-04-27 07:24 | 47.92897 | 9.65549 | 41213 ft | 503 kts | 146° |
| 2026-04-27 07:25 | 47.87135 | 9.71471 | 41216 ft | 503 kts | 146° |
| 2026-04-27 07:25 | 47.81361 | 9.77365 | 41227 ft | 503 kts | 146° |
| 2026-04-27 07:26 | 47.75588 | 9.83222 | 41219 ft | 502 kts | 146° |
| 2026-04-27 07:26 | 47.69813 | 9.89064 | 41217 ft | 502 kts | 146° |
| 2026-04-27 07:27 | 47.64040 | 9.94888 | 41203 ft | 502 kts | 146° |
| 2026-04-27 07:27 | 47.58392 | 10.00573 | 41197 ft | 501 kts | 146° |
| 2026-04-27 07:28 | 47.52618 | 10.06369 | 41205 ft | 501 kts | 146° |
| 2026-04-27 07:28 | 47.46838 | 10.12155 | 41189 ft | 501 kts | 146° |
| 2026-04-27 07:29 | 47.42038 | 10.16950 | 41199 ft | 501 kts | 146° |
| 2026-04-27 07:29 | 47.36248 | 10.22718 | 41186 ft | 502 kts | 146° |
| 2026-04-27 07:30 | 47.30459 | 10.28468 | 41208 ft | 501 kts | 146° |
| 2026-04-27 07:30 | 47.24662 | 10.34214 | 41219 ft | 502 kts | 146° |
| 2026-04-27 07:31 | 47.18859 | 10.39948 | 41198 ft | 503 kts | 146° |
| 2026-04-27 07:31 | 47.13033 | 10.45692 | 41205 ft | 503 kts | 147° |
| 2026-04-27 07:32 | 47.07174 | 10.51203 | 41201 ft | 502 kts | 152° |
| 2026-04-27 07:32 | 47.00791 | 10.55276 | 41215 ft | 498 kts | 163° |
| 2026-04-27 07:33 | 46.94160 | 10.58165 | 41240 ft | 497 kts | 165° |
| 2026-04-27 07:33 | 46.87564 | 10.61088 | 41232 ft | 497 kts | 164° |
| 2026-04-27 07:34 | 46.80891 | 10.63746 | 41241 ft | 496 kts | 167° |
| 2026-04-27 07:34 | 46.74157 | 10.66082 | 41238 ft | 497 kts | 168° |
| 2026-04-27 07:35 | 46.67408 | 10.68414 | 41223 ft | 498 kts | 168° |
| 2026-04-27 07:35 | 46.60694 | 10.70769 | 41249 ft | 496 kts | 168° |
| 2026-04-27 07:36 | 46.54009 | 10.73123 | 41244 ft | 497 kts | 168° |
| 2026-04-27 07:36 | 46.47305 | 10.75477 | 41124 ft | 490 kts | 168° |
| 2026-04-27 07:36 | 46.43996 | 10.76636 | 40822 ft | 489 kts | 168° |
| 2026-04-27 07:37 | 46.40672 | 10.77797 | 40463 ft | 489 kts | 168° |
| 2026-04-27 07:37 | 46.37361 | 10.78953 | 40080 ft | 490 kts | 167° |
| 2026-04-27 07:37 | 46.34087 | 10.80094 | 39699 ft | 490 kts | 168° |
| 2026-04-27 07:37 | 46.30776 | 10.81248 | 39302 ft | 489 kts | 167° |
| 2026-04-27 07:38 | 46.27464 | 10.82401 | 38892 ft | 489 kts | 167° |
| 2026-04-27 07:38 | 46.24153 | 10.83552 | 38344 ft | 490 kts | 167° |
| 2026-04-27 07:38 | 46.20834 | 10.84698 | 37706 ft | 491 kts | 168° |
| 2026-04-27 07:38 | 46.17501 | 10.85795 | 37034 ft | 492 kts | 168° |
| 2026-04-27 07:39 | 46.14146 | 10.86863 | 36371 ft | 493 kts | 168° |
| 2026-04-27 07:39 | 46.10790 | 10.87918 | 35682 ft | 494 kts | 168° |
| 2026-04-27 07:39 | 46.07425 | 10.88977 | 34942 ft | 494 kts | 168° |
| 2026-04-27 07:39 | 46.04063 | 10.90039 | 34153 ft | 496 kts | 168° |
| 2026-04-27 07:40 | 46.00690 | 10.91109 | 33448 ft | 493 kts | 168° |
| 2026-04-27 07:40 | 45.97375 | 10.92165 | 32900 ft | 488 kts | 168° |
| 2026-04-27 07:40 | 45.94068 | 10.93218 | 32383 ft | 482 kts | 168° |
| 2026-04-27 07:40 | 45.90806 | 10.94255 | 31865 ft | 477 kts | 168° |
| 2026-04-27 07:41 | 45.87629 | 10.95264 | 31233 ft | 471 kts | 168° |
| 2026-04-27 07:41 | 45.84441 | 10.96275 | 30583 ft | 467 kts | 168° |
| 2026-04-27 07:41 | 45.81287 | 10.97274 | 29871 ft | 462 kts | 168° |
| 2026-04-27 07:41 | 45.78157 | 10.98263 | 29102 ft | 458 kts | 168° |
| 2026-04-27 07:42 | 45.75063 | 10.99240 | 28391 ft | 453 kts | 168° |
| 2026-04-27 07:42 | 45.72093 | 11.00177 | 27732 ft | 448 kts | 168° |
| 2026-04-27 07:42 | 45.69053 | 11.01135 | 26992 ft | 445 kts | 168° |
| 2026-04-27 07:42 | 45.66040 | 11.02084 | 26311 ft | 441 kts | 168° |
| 2026-04-27 07:43 | 45.63059 | 11.03004 | 25623 ft | 437 kts | 169° |
| 2026-04-27 07:43 | 45.60075 | 11.03776 | 24967 ft | 434 kts | 172° |
| 2026-04-27 07:43 | 45.57081 | 11.04177 | 24377 ft | 428 kts | 178° |
| 2026-04-27 07:43 | 45.54123 | 11.04384 | 23859 ft | 423 kts | 179° |
| 2026-04-27 07:44 | 45.51200 | 11.04568 | 23250 ft | 419 kts | 179° |
| 2026-04-27 07:44 | 45.48298 | 11.04751 | 22626 ft | 415 kts | 179° |
| 2026-04-27 07:44 | 45.45426 | 11.04939 | 22002 ft | 412 kts | 179° |
| 2026-04-27 07:44 | 45.42572 | 11.05133 | 21312 ft | 410 kts | 179° |
| 2026-04-27 07:45 | 45.39734 | 11.05331 | 20697 ft | 407 kts | 179° |
| 2026-04-27 07:45 | 45.36915 | 11.05533 | 20131 ft | 403 kts | 179° |
| 2026-04-27 07:45 | 45.34128 | 11.05733 | 19582 ft | 399 kts | 179° |
| 2026-04-27 07:45 | 45.32450 | 11.05855 | 19246 ft | 390 kts | 179° |
| 2026-04-27 07:46 | 45.29821 | 11.06049 | 18040 ft | 372 kts | 179° |
| 2026-04-27 07:46 | 45.27290 | 11.06232 | 16537 ft | 364 kts | 178° |
| 2026-04-27 07:46 | 45.24728 | 11.06285 | 15310 ft | 375 kts | 184° |
| 2026-04-27 07:46 | 45.22168 | 11.05981 | 14537 ft | 360 kts | 188° |
| 2026-04-27 07:47 | 45.19714 | 11.05548 | 13349 ft | 351 kts | 189° |
| 2026-04-27 07:47 | 45.17255 | 11.05078 | 12375 ft | 359 kts | 189° |
| 2026-04-27 07:47 | 45.14786 | 11.04602 | 11889 ft | 354 kts | 189° |
| 2026-04-27 07:47 | 45.12389 | 11.04069 | 11453 ft | 344 kts | 194° |
| 2026-04-27 07:48 | 45.10122 | 11.03241 | 11376 ft | 327 kts | 197° |
| 2026-04-27 07:48 | 45.07982 | 11.02376 | 11274 ft | 313 kts | 198° |
| 2026-04-27 07:48 | 45.05930 | 11.01542 | 11153 ft | 301 kts | 198° |
| 2026-04-27 07:48 | 45.03942 | 11.00740 | 10982 ft | 293 kts | 197° |
| 2026-04-27 07:49 | 45.02034 | 10.99957 | 10718 ft | 287 kts | 197° |
| 2026-04-27 07:49 | 45.00124 | 10.99154 | 10376 ft | 285 kts | 198° |
| 2026-04-27 07:49 | 44.98305 | 10.98174 | 9919 ft | 280 kts | 213° |
| 2026-04-27 07:49 | 44.96899 | 10.96295 | 9429 ft | 277 kts | 233° |
| 2026-04-27 07:50 | 44.95735 | 10.94149 | 9097 ft | 274 kts | 233° |
| 2026-04-27 07:50 | 44.94595 | 10.92032 | 8902 ft | 266 kts | 233° |
| 2026-04-27 07:50 | 44.93497 | 10.89999 | 8835 ft | 255 kts | 233° |
| 2026-04-27 07:50 | 44.92446 | 10.88046 | 8720 ft | 246 kts | 234° |
| 2026-04-27 07:51 | 44.91430 | 10.86156 | 8559 ft | 239 kts | 233° |
| 2026-04-27 07:51 | 44.90424 | 10.84319 | 8335 ft | 232 kts | 228° |
| 2026-04-27 07:51 | 44.89078 | 10.83069 | 7946 ft | 235 kts | 200° |
| 2026-04-27 07:51 | 44.87520 | 10.82456 | 7650 ft | 236 kts | 194° |
| 2026-04-27 07:52 | 44.85918 | 10.81928 | 7412 ft | 234 kts | 194° |
| 2026-04-27 07:52 | 44.84333 | 10.81414 | 7186 ft | 232 kts | 194° |
| 2026-04-27 07:52 | 44.82772 | 10.80909 | 6934 ft | 230 kts | 194° |
| 2026-04-27 07:52 | 44.81209 | 10.80410 | 6605 ft | 229 kts | 194° |
| 2026-04-27 07:53 | 44.79658 | 10.79913 | 6135 ft | 227 kts | 192° |
| 2026-04-27 07:53 | 44.78108 | 10.79829 | 5569 ft | 230 kts | 176° |
| 2026-04-27 07:53 | 44.76514 | 10.80057 | 5119 ft | 228 kts | 174° |
| 2026-04-27 07:53 | 44.74952 | 10.80326 | 4689 ft | 222 kts | 168° |
| 2026-04-27 07:54 | 44.73556 | 10.81235 | 4121 ft | 224 kts | 146° |
| 2026-04-27 07:54 | 44.72280 | 10.82490 | 3728 ft | 221 kts | 144° |
| 2026-04-27 07:54 | 44.71047 | 10.83730 | 3465 ft | 214 kts | 144° |
| 2026-04-27 07:54 | 44.69881 | 10.84967 | 3098 ft | 208 kts | 136° |
| 2026-04-27 07:55 | 44.68929 | 10.86506 | 2689 ft | 208 kts | 125° |
| 2026-04-27 07:55 | 44.68172 | 10.88233 | 2595 ft | 211 kts | 119° |
| 2026-04-27 07:55 | 44.67482 | 10.90050 | 2589 ft | 208 kts | 117° |
| 2026-04-27 07:55 | 44.66825 | 10.91858 | 2579 ft | 207 kts | 116° |
| 2026-04-27 07:56 | 44.66171 | 10.93674 | 2586 ft | 209 kts | 116° |
| 2026-04-27 07:56 | 44.65526 | 10.95478 | 2587 ft | 208 kts | 116° |
| 2026-04-27 07:56 | 44.64893 | 10.97247 | 2572 ft | 198 kts | 116° |
| 2026-04-27 07:56 | 44.64291 | 10.98931 | 2569 ft | 189 kts | 116° |
| 2026-04-27 07:57 | 44.63701 | 11.00577 | 2572 ft | 189 kts | 116° |
| 2026-04-27 07:57 | 44.63110 | 11.02225 | 2580 ft | 189 kts | 116° |
| 2026-04-27 07:57 | 44.62520 | 11.03870 | 2581 ft | 188 kts | 116° |
| 2026-04-27 07:57 | 44.61930 | 11.05516 | 2583 ft | 188 kts | 116° |
| 2026-04-27 07:58 | 44.61340 | 11.07160 | 2590 ft | 189 kts | 117° |
| 2026-04-27 07:58 | 44.60757 | 11.08785 | 2581 ft | 188 kts | 116° |
| 2026-04-27 07:58 | 44.60190 | 11.10370 | 2565 ft | 176 kts | 116° |
| 2026-04-27 07:58 | 44.59654 | 11.11861 | 2561 ft | 167 kts | 117° |
| 2026-04-27 07:59 | 44.59134 | 11.13308 | 2461 ft | 169 kts | 117° |
| 2026-04-27 07:59 | 44.58108 | 11.16167 | 2017 ft | 152 kts | 116° |
| 2026-04-27 07:59 | 44.57654 | 11.17436 | 1821 ft | 141 kts | 116° |
| 2026-04-27 08:00 | 44.57215 | 11.18649 | 1624 ft | 138 kts | 116° |
| 2026-04-27 08:00 | 44.56780 | 11.19861 | 1418 ft | 140 kts | 116° |
| 2026-04-27 08:00 | 44.56345 | 11.21072 | 1218 ft | 139 kts | 115° |
| 2026-04-27 08:00 | 44.55912 | 11.22277 | 1018 ft | 138 kts | 115° |
| 2026-04-27 08:01 | 44.55483 | 11.23476 | 819 ft | 138 kts | 116° |
| 2026-04-27 08:01 | 44.55062 | 11.24671 | 644 ft | 135 kts | 115° |
| 2026-04-27 08:01 | 44.54639 | 11.25845 | 462 ft | 140 kts | 117° |
| 2026-04-27 08:01 | 44.54190 | 11.27071 | 272 ft | 140 kts | 117° |
| 2026-04-27 08:02 | 44.53758 | 11.28276 | 131 ft | 131 kts | 116° |
| 2026-04-27 08:02 | 44.53403 | 11.29259 | 130 ft | 92 kts | 117° |
| 2026-04-27 08:02 | 44.53184 | 11.29864 | 127 ft | 47 kts | 117° |
| 2026-04-27 08:02 | 44.53081 | 11.30150 | 126 ft | 19 kts | 116° |
| 2026-04-27 08:03 | 44.53012 | 11.30238 | 126 ft | 13 kts | 192° |
| 2026-04-27 08:03 | 44.52980 | 11.30127 | 128 ft | 13 kts | 268° |
| 2026-04-27 08:03 | 44.52976 | 11.29997 | 127 ft | 13 kts | 267° |
| 2026-04-27 08:03 | 44.52989 | 11.29869 | 130 ft | 13 kts | 289° |
| 2026-04-27 08:04 | 44.52958 | 11.29778 | 126 ft | 11 kts | 207° |
| 2026-04-27 08:04 | 44.52895 | 11.29732 | 130 ft | 8 kts | 207° |
| 2026-04-27 08:04 | 44.52888 | 11.29727 | 126 ft | 0 kts | 208° |
| 2026-04-27 08:08 | 44.52889 | 11.29727 | 126 ft | 0 kts | 208° |
| 2026-04-27 08:31 | 44.52889 | 11.29728 | 135 ft | 0 kts | 208° |